sensor_id;sensor_type;location;lat;lon;timestamp;temperature;humidity
61255;DHT22;47128;47.530;8.584;2022-12-31T00:01:12;9.60;99.90
61255;DHT22;47128;47.530;8.584;2022-12-31T00:03:38;9.70;99.90
61255;DHT22;47128;47.530;8.584;2022-12-31T00:06:17;9.70;99.90
61255;DHT22;47128;47.530;8.584;2022-12-31T00:08:44;9.80;99.90
61255;DHT22;47128;47.530;8.584;2022-12-31T00:11:10;9.90;99.90
61255;DHT22;47128;47.530;8.584;2022-12-31T00:13:36;9.90;99.90
61255;DHT22;47128;47.530;8.584;2022-12-31T00:16:15;10.00;99.90
61255;DHT22;47128;47.530;8.584;2022-12-31T00:18:44;10.10;99.90
61255;DHT22;47128;47.530;8.584;2022-12-31T00:21:10;9.90;99.90
61255;DHT22;47128;47.530;8.584;2022-12-31T00:23:36;9.80;99.90
61255;DHT22;47128;47.530;8.584;2022-12-31T00:26:05;9.80;99.90
61255;DHT22;47128;47.530;8.584;2022-12-31T00:28:30;9.80;99.90
61255;DHT22;47128;47.530;8.584;2022-12-31T00:31:00;9.90;99.90
61255;DHT22;47128;47.530;8.584;2022-12-31T00:33:27;9.90;99.90
61255;DHT22;47128;47.530;8.584;2022-12-31T00:35:53;9.90;99.90
61255;DHT22;47128;47.530;8.584;2022-12-31T00:38:18;9.80;99.90
61255;DHT22;47128;47.530;8.584;2022-12-31T00:40:43;9.80;99.90
61255;DHT22;47128;47.530;8.584;2022-12-31T00:43:09;9.80;99.90
61255;DHT22;47128;47.530;8.584;2022-12-31T00:45:34;9.80;99.90
61255;DHT22;47128;47.530;8.584;2022-12-31T00:48:00;9.80;99.90
61255;DHT22;47128;47.530;8.584;2022-12-31T00:50:25;9.80;99.90
61255;DHT22;47128;47.530;8.584;2022-12-31T00:52:51;9.80;99.90
61255;DHT22;47128;47.530;8.584;2022-12-31T00:55:16;9.80;99.90
61255;DHT22;47128;47.530;8.584;2022-12-31T00:57:42;9.90;99.90
61255;DHT22;47128;47.530;8.584;2022-12-31T01:00:07;10.00;99.90
61255;DHT22;47128;47.530;8.584;2022-12-31T01:02:33;10.30;99.90
61255;DHT22;47128;47.530;8.584;2022-12-31T01:04:58;10.50;99.90
61255;DHT22;47128;47.530;8.584;2022-12-31T01:07:24;10.50;99.90
61255;DHT22;47128;47.530;8.584;2022-12-31T01:09:49;10.60;99.90
61255;DHT22;47128;47.530;8.584;2022-12-31T01:12:15;10.70;99.90
61255;DHT22;47128;47.530;8.584;2022-12-31T01:14:40;10.80;99.90
61255;DHT22;47128;47.530;8.584;2022-12-31T01:17:06;11.00;99.90
61255;DHT22;47128;47.530;8.584;2022-12-31T01:19:32;11.10;99.90
61255;DHT22;47128;47.530;8.584;2022-12-31T01:21:57;11.00;99.90
61255;DHT22;47128;47.530;8.584;2022-12-31T01:24:23;11.00;99.90
61255;DHT22;47128;47.530;8.584;2022-12-31T01:26:48;10.90;99.90
61255;DHT22;47128;47.530;8.584;2022-12-31T01:29:15;10.90;99.90
61255;DHT22;47128;47.530;8.584;2022-12-31T01:31:41;10.80;99.90
61255;DHT22;47128;47.530;8.584;2022-12-31T01:34:06;10.70;99.90
61255;DHT22;47128;47.530;8.584;2022-12-31T01:36:32;10.90;99.90
61255;DHT22;47128;47.530;8.584;2022-12-31T01:38:58;11.10;99.90
61255;DHT22;47128;47.530;8.584;2022-12-31T01:41:28;11.00;99.90
61255;DHT22;47128;47.530;8.584;2022-12-31T01:43:55;11.00;99.90
61255;DHT22;47128;47.530;8.584;2022-12-31T01:46:27;10.80;99.90
61255;DHT22;47128;47.530;8.584;2022-12-31T01:48:56;10.90;99.90
61255;DHT22;47128;47.530;8.584;2022-12-31T01:51:24;10.70;99.90
61255;DHT22;47128;47.530;8.584;2022-12-31T01:53:51;10.60;99.90
61255;DHT22;47128;47.530;8.584;2022-12-31T01:56:17;10.70;99.90
61255;DHT22;47128;47.530;8.584;2022-12-31T01:58:45;10.80;99.90
61255;DHT22;47128;47.530;8.584;2022-12-31T02:01:12;10.80;99.90
61255;DHT22;47128;47.530;8.584;2022-12-31T02:03:39;10.70;99.90
61255;DHT22;47128;47.530;8.584;2022-12-31T02:06:19;10.60;99.90
61255;DHT22;47128;47.530;8.584;2022-12-31T02:08:45;10.50;99.90
61255;DHT22;47128;47.530;8.584;2022-12-31T02:11:27;10.40;99.90
61255;DHT22;47128;47.530;8.584;2022-12-31T02:13:53;10.30;99.90
61255;DHT22;47128;47.530;8.584;2022-12-31T02:16:26;10.30;99.90
61255;DHT22;47128;47.530;8.584;2022-12-31T02:18:58;10.20;99.90
61255;DHT22;47128;47.530;8.584;2022-12-31T02:24:01;10.30;99.90
61255;DHT22;47128;47.530;8.584;2022-12-31T02:31:55;10.10;99.90
61255;DHT22;47128;47.530;8.584;2022-12-31T02:34:26;10.20;99.90
61255;DHT22;47128;47.530;8.584;2022-12-31T02:36:55;10.30;99.90
61255;DHT22;47128;47.530;8.584;2022-12-31T02:39:22;10.60;99.90
61255;DHT22;47128;47.530;8.584;2022-12-31T02:41:48;10.70;99.90
61255;DHT22;47128;47.530;8.584;2022-12-31T02:44:26;10.70;99.90
61255;DHT22;47128;47.530;8.584;2022-12-31T02:49:22;10.80;99.90
61255;DHT22;47128;47.530;8.584;2022-12-31T02:51:57;10.90;99.90
61255;DHT22;47128;47.530;8.584;2022-12-31T02:54:32;11.00;99.90
61255;DHT22;47128;47.530;8.584;2022-12-31T02:59:49;10.90;99.90
61255;DHT22;47128;47.530;8.584;2022-12-31T03:02:34;10.80;99.90
61255;DHT22;47128;47.530;8.584;2022-12-31T03:05:00;10.70;99.90
61255;DHT22;47128;47.530;8.584;2022-12-31T03:07:28;10.70;99.90
61255;DHT22;47128;47.530;8.584;2022-12-31T03:09:54;10.60;99.90
61255;DHT22;47128;47.530;8.584;2022-12-31T03:12:20;10.50;99.90
61255;DHT22;47128;47.530;8.584;2022-12-31T03:15:05;10.60;99.90
61255;DHT22;47128;47.530;8.584;2022-12-31T03:17:32;10.60;99.90
61255;DHT22;47128;47.530;8.584;2022-12-31T03:19:57;10.60;99.90
61255;DHT22;47128;47.530;8.584;2022-12-31T03:22:43;10.60;99.90
61255;DHT22;47128;47.530;8.584;2022-12-31T03:27:53;10.70;99.90
61255;DHT22;47128;47.530;8.584;2022-12-31T03:30:20;10.80;99.90
61255;DHT22;47128;47.530;8.584;2022-12-31T03:32:46;10.80;99.90
61255;DHT22;47128;47.530;8.584;2022-12-31T03:35:13;10.70;99.90
61255;DHT22;47128;47.530;8.584;2022-12-31T03:37:39;10.70;99.90
61255;DHT22;47128;47.530;8.584;2022-12-31T03:40:05;10.70;99.90
61255;DHT22;47128;47.530;8.584;2022-12-31T03:42:31;10.70;99.90
61255;DHT22;47128;47.530;8.584;2022-12-31T03:44:57;10.60;99.90
61255;DHT22;47128;47.530;8.584;2022-12-31T03:47:22;10.60;99.90
61255;DHT22;47128;47.530;8.584;2022-12-31T03:49:48;10.60;99.90
61255;DHT22;47128;47.530;8.584;2022-12-31T03:52:13;10.70;99.90
61255;DHT22;47128;47.530;8.584;2022-12-31T03:54:39;10.70;99.90
61255;DHT22;47128;47.530;8.584;2022-12-31T03:57:04;10.70;99.90
61255;DHT22;47128;47.530;8.584;2022-12-31T03:59:30;10.70;99.90
61255;DHT22;47128;47.530;8.584;2022-12-31T04:01:55;10.60;99.90
61255;DHT22;47128;47.530;8.584;2022-12-31T04:04:21;10.50;99.90
61255;DHT22;47128;47.530;8.584;2022-12-31T04:06:46;10.60;99.90
61255;DHT22;47128;47.530;8.584;2022-12-31T04:09:12;10.60;99.90
61255;DHT22;47128;47.530;8.584;2022-12-31T04:11:37;10.80;99.90
61255;DHT22;47128;47.530;8.584;2022-12-31T04:14:03;10.70;99.90
61255;DHT22;47128;47.530;8.584;2022-12-31T04:16:28;10.70;99.90
61255;DHT22;47128;47.530;8.584;2022-12-31T04:18:54;10.90;99.90
61255;DHT22;47128;47.530;8.584;2022-12-31T04:21:19;11.00;99.90
61255;DHT22;47128;47.530;8.584;2022-12-31T04:23:44;10.90;99.90
61255;DHT22;47128;47.530;8.584;2022-12-31T04:26:10;11.00;99.90
61255;DHT22;47128;47.530;8.584;2022-12-31T04:28:35;10.90;99.90
61255;DHT22;47128;47.530;8.584;2022-12-31T04:31:01;10.90;99.90
61255;DHT22;47128;47.530;8.584;2022-12-31T04:33:28;10.90;99.90
61255;DHT22;47128;47.530;8.584;2022-12-31T04:35:59;10.70;99.90
61255;DHT22;47128;47.530;8.584;2022-12-31T04:38:24;10.70;99.90
61255;DHT22;47128;47.530;8.584;2022-12-31T04:40:50;10.60;99.90
61255;DHT22;47128;47.530;8.584;2022-12-31T04:43:34;10.40;99.90
61255;DHT22;47128;47.530;8.584;2022-12-31T04:45:59;10.50;99.90
61255;DHT22;47128;47.530;8.584;2022-12-31T04:48:25;10.50;99.90
61255;DHT22;47128;47.530;8.584;2022-12-31T04:50:50;10.40;99.90
61255;DHT22;47128;47.530;8.584;2022-12-31T04:53:16;10.60;99.90
61255;DHT22;47128;47.530;8.584;2022-12-31T04:55:41;10.70;99.90
61255;DHT22;47128;47.530;8.584;2022-12-31T04:58:07;11.00;99.90
61255;DHT22;47128;47.530;8.584;2022-12-31T05:00:32;10.90;99.90
61255;DHT22;47128;47.530;8.584;2022-12-31T05:02:58;10.80;99.90
61255;DHT22;47128;47.530;8.584;2022-12-31T05:05:23;10.70;99.90
61255;DHT22;47128;47.530;8.584;2022-12-31T05:07:48;10.60;99.90
61255;DHT22;47128;47.530;8.584;2022-12-31T05:10:14;10.70;99.90
61255;DHT22;47128;47.530;8.584;2022-12-31T05:12:41;10.60;99.90
61255;DHT22;47128;47.530;8.584;2022-12-31T05:15:06;10.50;99.90
61255;DHT22;47128;47.530;8.584;2022-12-31T05:17:32;10.50;99.90
61255;DHT22;47128;47.530;8.584;2022-12-31T05:19:57;10.50;99.90
61255;DHT22;47128;47.530;8.584;2022-12-31T05:22:23;10.50;99.90
61255;DHT22;47128;47.530;8.584;2022-12-31T05:24:57;10.50;99.90
61255;DHT22;47128;47.530;8.584;2022-12-31T05:27:23;10.50;99.90
61255;DHT22;47128;47.530;8.584;2022-12-31T05:29:49;10.40;99.90
61255;DHT22;47128;47.530;8.584;2022-12-31T05:32:14;10.40;99.90
61255;DHT22;47128;47.530;8.584;2022-12-31T05:34:40;10.30;99.90
61255;DHT22;47128;47.530;8.584;2022-12-31T05:37:05;10.20;99.90
61255;DHT22;47128;47.530;8.584;2022-12-31T05:39:30;10.20;99.90
61255;DHT22;47128;47.530;8.584;2022-12-31T05:41:56;10.20;99.90
61255;DHT22;47128;47.530;8.584;2022-12-31T05:44:21;10.30;99.90
61255;DHT22;47128;47.530;8.584;2022-12-31T05:46:47;10.50;99.90
61255;DHT22;47128;47.530;8.584;2022-12-31T05:49:12;10.50;99.90
61255;DHT22;47128;47.530;8.584;2022-12-31T05:51:38;10.60;99.90
61255;DHT22;47128;47.530;8.584;2022-12-31T05:54:03;10.50;99.90
61255;DHT22;47128;47.530;8.584;2022-12-31T05:56:29;10.60;99.90
61255;DHT22;47128;47.530;8.584;2022-12-31T05:58:54;10.50;99.90
61255;DHT22;47128;47.530;8.584;2022-12-31T06:01:20;10.50;99.90
61255;DHT22;47128;47.530;8.584;2022-12-31T06:03:45;10.40;99.90
61255;DHT22;47128;47.530;8.584;2022-12-31T06:06:11;10.40;99.90
61255;DHT22;47128;47.530;8.584;2022-12-31T06:08:36;10.30;99.90
61255;DHT22;47128;47.530;8.584;2022-12-31T06:11:02;10.20;99.90
61255;DHT22;47128;47.530;8.584;2022-12-31T06:13:27;10.10;99.90
61255;DHT22;47128;47.530;8.584;2022-12-31T06:15:53;10.30;99.90
61255;DHT22;47128;47.530;8.584;2022-12-31T06:18:18;10.30;99.90
61255;DHT22;47128;47.530;8.584;2022-12-31T06:20:44;10.30;99.90
61255;DHT22;47128;47.530;8.584;2022-12-31T06:23:09;10.20;99.90
61255;DHT22;47128;47.530;8.584;2022-12-31T06:25:35;10.10;99.90
61255;DHT22;47128;47.530;8.584;2022-12-31T06:28:02;10.00;99.90
61255;DHT22;47128;47.530;8.584;2022-12-31T06:30:27;10.00;99.90
61255;DHT22;47128;47.530;8.584;2022-12-31T06:32:53;10.00;99.90
61255;DHT22;47128;47.530;8.584;2022-12-31T06:35:19;10.00;99.90
61255;DHT22;47128;47.530;8.584;2022-12-31T06:37:44;10.20;99.90
61255;DHT22;47128;47.530;8.584;2022-12-31T06:40:10;10.10;99.90
61255;DHT22;47128;47.530;8.584;2022-12-31T06:42:36;10.10;99.90
61255;DHT22;47128;47.530;8.584;2022-12-31T06:45:02;9.90;99.90
61255;DHT22;47128;47.530;8.584;2022-12-31T06:47:27;9.80;99.90
61255;DHT22;47128;47.530;8.584;2022-12-31T06:49:53;9.80;99.90
61255;DHT22;47128;47.530;8.584;2022-12-31T06:52:19;9.80;99.90
61255;DHT22;47128;47.530;8.584;2022-12-31T06:54:44;9.80;99.90
61255;DHT22;47128;47.530;8.584;2022-12-31T06:57:10;9.70;99.90
61255;DHT22;47128;47.530;8.584;2022-12-31T06:59:35;9.70;99.90
61255;DHT22;47128;47.530;8.584;2022-12-31T07:02:09;9.80;99.90
61255;DHT22;47128;47.530;8.584;2022-12-31T07:04:48;9.70;99.90
61255;DHT22;47128;47.530;8.584;2022-12-31T07:12:52;9.80;99.90
61255;DHT22;47128;47.530;8.584;2022-12-31T07:20:50;9.60;99.90
61255;DHT22;47128;47.530;8.584;2022-12-31T07:23:16;9.50;99.90
61255;DHT22;47128;47.530;8.584;2022-12-31T07:25:43;9.60;99.90
61255;DHT22;47128;47.530;8.584;2022-12-31T07:28:20;9.60;99.90
61255;DHT22;47128;47.530;8.584;2022-12-31T07:30:52;9.50;99.90
61255;DHT22;47128;47.530;8.584;2022-12-31T07:41:06;9.40;99.90
61255;DHT22;47128;47.530;8.584;2022-12-31T07:43:35;9.30;99.90
61255;DHT22;47128;47.530;8.584;2022-12-31T07:48:31;9.20;99.90
61255;DHT22;47128;47.530;8.584;2022-12-31T07:50:56;9.20;99.90
61255;DHT22;47128;47.530;8.584;2022-12-31T07:53:22;9.30;99.90
61255;DHT22;47128;47.530;8.584;2022-12-31T07:55:48;9.20;99.90
61255;DHT22;47128;47.530;8.584;2022-12-31T07:58:18;9.30;99.90
61255;DHT22;47128;47.530;8.584;2022-12-31T08:00:45;9.30;99.90
61255;DHT22;47128;47.530;8.584;2022-12-31T08:03:33;9.30;99.90
61255;DHT22;47128;47.530;8.584;2022-12-31T08:06:07;9.30;99.90
61255;DHT22;47128;47.530;8.584;2022-12-31T08:08:35;9.30;99.90
61255;DHT22;47128;47.530;8.584;2022-12-31T08:11:11;9.30;99.90
61255;DHT22;47128;47.530;8.584;2022-12-31T08:13:39;9.40;99.90
61255;DHT22;47128;47.530;8.584;2022-12-31T08:16:06;9.40;99.90
61255;DHT22;47128;47.530;8.584;2022-12-31T08:18:33;9.50;99.90
61255;DHT22;47128;47.530;8.584;2022-12-31T08:24:02;9.60;99.90
61255;DHT22;47128;47.530;8.584;2022-12-31T08:31:34;9.50;99.90
61255;DHT22;47128;47.530;8.584;2022-12-31T08:36:52;9.30;99.90
61255;DHT22;47128;47.530;8.584;2022-12-31T08:41:46;9.30;99.90
61255;DHT22;47128;47.530;8.584;2022-12-31T08:49:38;9.40;99.90
61255;DHT22;47128;47.530;8.584;2022-12-31T08:52:05;9.30;99.90
61255;DHT22;47128;47.530;8.584;2022-12-31T08:54:33;9.40;99.90
61255;DHT22;47128;47.530;8.584;2022-12-31T08:57:03;9.40;99.90
61255;DHT22;47128;47.530;8.584;2022-12-31T08:59:42;9.40;99.90
61255;DHT22;47128;47.530;8.584;2022-12-31T09:02:19;9.60;99.90
61255;DHT22;47128;47.530;8.584;2022-12-31T09:07:36;9.50;99.90
61255;DHT22;47128;47.530;8.584;2022-12-31T09:12:40;9.50;99.90
61255;DHT22;47128;47.530;8.584;2022-12-31T09:17:45;9.50;99.90
61255;DHT22;47128;47.530;8.584;2022-12-31T09:20:30;9.60;99.90
61255;DHT22;47128;47.530;8.584;2022-12-31T09:22:57;9.60;99.90
61255;DHT22;47128;47.530;8.584;2022-12-31T09:25:23;9.70;99.90
61255;DHT22;47128;47.530;8.584;2022-12-31T09:28:07;9.80;99.90
61255;DHT22;47128;47.530;8.584;2022-12-31T09:35:57;10.00;99.90
61255;DHT22;47128;47.530;8.584;2022-12-31T09:46:40;10.80;99.90
61255;DHT22;47128;47.530;8.584;2022-12-31T09:54:53;13.80;99.90
61255;DHT22;47128;47.530;8.584;2022-12-31T09:57:29;14.90;99.90
61255;DHT22;47128;47.530;8.584;2022-12-31T10:07:58;15.60;99.10
61255;DHT22;47128;47.530;8.584;2022-12-31T10:10:28;15.60;98.70
61255;DHT22;47128;47.530;8.584;2022-12-31T10:26:41;17.40;95.40
61255;DHT22;47128;47.530;8.584;2022-12-31T10:29:08;17.80;94.40
61255;DHT22;47128;47.530;8.584;2022-12-31T10:31:48;18.00;93.50
61255;DHT22;47128;47.530;8.584;2022-12-31T10:34:24;17.30;93.80
61255;DHT22;47128;47.530;8.584;2022-12-31T10:36:52;16.90;95.10
61255;DHT22;47128;47.530;8.584;2022-12-31T10:41:52;17.10;94.90
61255;DHT22;47128;47.530;8.584;2022-12-31T10:44:30;17.30;95.30
61255;DHT22;47128;47.530;8.584;2022-12-31T10:54:54;17.20;94.70
61255;DHT22;47128;47.530;8.584;2022-12-31T11:00:00;17.10;95.30
61255;DHT22;47128;47.530;8.584;2022-12-31T11:07:28;17.90;94.80
61255;DHT22;47128;47.530;8.584;2022-12-31T11:18:09;17.80;94.80
61255;DHT22;47128;47.530;8.584;2022-12-31T11:28:47;17.00;96.40
61255;DHT22;47128;47.530;8.584;2022-12-31T11:31:22;16.50;97.20
61255;DHT22;47128;47.530;8.584;2022-12-31T11:41:52;15.70;98.80
61255;DHT22;47128;47.530;8.584;2022-12-31T11:46:52;15.60;99.10
61255;DHT22;47128;47.530;8.584;2022-12-31T11:57:12;15.50;99.90
61255;DHT22;47128;47.530;8.584;2022-12-31T11:59:40;15.40;99.90
61255;DHT22;47128;47.530;8.584;2022-12-31T12:02:40;15.20;99.90
61255;DHT22;47128;47.530;8.584;2022-12-31T12:04:59;15.30;99.90
61255;DHT22;47128;47.530;8.584;2022-12-31T12:07:26;15.30;99.90
61255;DHT22;47128;47.530;8.584;2022-12-31T12:09:52;15.30;99.90
61255;DHT22;47128;47.530;8.584;2022-12-31T12:12:18;15.50;99.90
61255;DHT22;47128;47.530;8.584;2022-12-31T12:14:44;15.50;99.90
61255;DHT22;47128;47.530;8.584;2022-12-31T12:17:15;15.40;99.90
61255;DHT22;47128;47.530;8.584;2022-12-31T12:19:43;15.50;99.80
61255;DHT22;47128;47.530;8.584;2022-12-31T12:25:05;15.80;98.20
61255;DHT22;47128;47.530;8.584;2022-12-31T12:27:32;16.00;97.50
61255;DHT22;47128;47.530;8.584;2022-12-31T12:30:06;16.10;97.80
61255;DHT22;47128;47.530;8.584;2022-12-31T12:32:32;16.10;98.00
61255;DHT22;47128;47.530;8.584;2022-12-31T12:34:57;16.10;97.00
61255;DHT22;47128;47.530;8.584;2022-12-31T12:37:32;16.10;97.40
61255;DHT22;47128;47.530;8.584;2022-12-31T12:40:03;16.00;97.60
61255;DHT22;47128;47.530;8.584;2022-12-31T12:42:29;16.00;98.00
61255;DHT22;47128;47.530;8.584;2022-12-31T12:45:02;15.80;99.80
61255;DHT22;47128;47.530;8.584;2022-12-31T12:47:28;15.80;99.90
61255;DHT22;47128;47.530;8.584;2022-12-31T12:49:55;15.60;99.90
61255;DHT22;47128;47.530;8.584;2022-12-31T12:57:25;15.40;99.90
61255;DHT22;47128;47.530;8.584;2022-12-31T12:59:55;15.40;99.90
61255;DHT22;47128;47.530;8.584;2022-12-31T13:02:37;15.30;99.90
61255;DHT22;47128;47.530;8.584;2022-12-31T13:05:09;15.40;99.90
61255;DHT22;47128;47.530;8.584;2022-12-31T13:07:45;15.40;99.90
61255;DHT22;47128;47.530;8.584;2022-12-31T13:13:17;15.30;99.90
61255;DHT22;47128;47.530;8.584;2022-12-31T13:15:49;15.30;99.90
61255;DHT22;47128;47.530;8.584;2022-12-31T13:18:39;15.10;99.90
61255;DHT22;47128;47.530;8.584;2022-12-31T13:23:50;15.00;99.90
61255;DHT22;47128;47.530;8.584;2022-12-31T13:26:26;15.00;99.90
61255;DHT22;47128;47.530;8.584;2022-12-31T13:28:52;14.80;99.90
61255;DHT22;47128;47.530;8.584;2022-12-31T13:31:29;14.90;99.90
61255;DHT22;47128;47.530;8.584;2022-12-31T13:33:58;14.80;99.90
61255;DHT22;47128;47.530;8.584;2022-12-31T13:36:25;14.70;99.90
61255;DHT22;47128;47.530;8.584;2022-12-31T13:38:52;14.60;99.90
61255;DHT22;47128;47.530;8.584;2022-12-31T13:41:31;14.50;99.90
61255;DHT22;47128;47.530;8.584;2022-12-31T13:48:54;14.40;99.90
61255;DHT22;47128;47.530;8.584;2022-12-31T13:54:05;14.10;99.90
61255;DHT22;47128;47.530;8.584;2022-12-31T13:56:36;14.00;99.90
61255;DHT22;47128;47.530;8.584;2022-12-31T13:59:04;13.90;99.90
61255;DHT22;47128;47.530;8.584;2022-12-31T14:01:49;13.80;99.90
61255;DHT22;47128;47.530;8.584;2022-12-31T14:06:52;13.70;99.90
61255;DHT22;47128;47.530;8.584;2022-12-31T14:09:24;13.60;99.90
61255;DHT22;47128;47.530;8.584;2022-12-31T14:14:29;13.50;99.90
61255;DHT22;47128;47.530;8.584;2022-12-31T14:16:58;13.40;99.90
61255;DHT22;47128;47.530;8.584;2022-12-31T14:20:05;13.30;99.90
61255;DHT22;47128;47.530;8.584;2022-12-31T14:22:43;13.30;99.90
61255;DHT22;47128;47.530;8.584;2022-12-31T14:25:08;13.10;99.90
61255;DHT22;47128;47.530;8.584;2022-12-31T14:27:38;13.00;99.90
61255;DHT22;47128;47.530;8.584;2022-12-31T14:30:13;13.00;99.90
61255;DHT22;47128;47.530;8.584;2022-12-31T14:37:57;12.90;99.90
61255;DHT22;47128;47.530;8.584;2022-12-31T14:40:26;12.90;99.90
61255;DHT22;47128;47.530;8.584;2022-12-31T14:48:18;12.90;99.90
61255;DHT22;47128;47.530;8.584;2022-12-31T14:50:45;13.00;99.90
61255;DHT22;47128;47.530;8.584;2022-12-31T14:53:17;13.00;99.90
61255;DHT22;47128;47.530;8.584;2022-12-31T14:55:43;13.00;99.90
61255;DHT22;47128;47.530;8.584;2022-12-31T14:58:19;12.90;99.90
61255;DHT22;47128;47.530;8.584;2022-12-31T15:00:55;12.70;99.90
61255;DHT22;47128;47.530;8.584;2022-12-31T15:06:18;12.50;99.90
61255;DHT22;47128;47.530;8.584;2022-12-31T15:11:31;12.20;99.90
61255;DHT22;47128;47.530;8.584;2022-12-31T15:16:51;12.30;99.90
61255;DHT22;47128;47.530;8.584;2022-12-31T15:24:29;12.10;99.90
61255;DHT22;47128;47.530;8.584;2022-12-31T15:26:56;12.00;99.90
61255;DHT22;47128;47.530;8.584;2022-12-31T15:34:25;11.70;99.90
61255;DHT22;47128;47.530;8.584;2022-12-31T15:36:52;11.60;99.90
61255;DHT22;47128;47.530;8.584;2022-12-31T15:39:22;11.70;99.90
61255;DHT22;47128;47.530;8.584;2022-12-31T15:41:49;11.60;99.90
61255;DHT22;47128;47.530;8.584;2022-12-31T15:44:21;11.50;99.90
61255;DHT22;47128;47.530;8.584;2022-12-31T15:46:50;11.60;99.90
61255;DHT22;47128;47.530;8.584;2022-12-31T15:49:19;11.60;99.90
61255;DHT22;47128;47.530;8.584;2022-12-31T15:51:49;11.60;99.90
61255;DHT22;47128;47.530;8.584;2022-12-31T15:54:23;11.50;99.90
61255;DHT22;47128;47.530;8.584;2022-12-31T15:56:50;11.40;99.90
61255;DHT22;47128;47.530;8.584;2022-12-31T15:59:17;11.30;99.90
61255;DHT22;47128;47.530;8.584;2022-12-31T16:01:43;11.20;99.90
61255;DHT22;47128;47.530;8.584;2022-12-31T16:04:16;11.20;99.90
61255;DHT22;47128;47.530;8.584;2022-12-31T16:06:42;11.20;99.90
61255;DHT22;47128;47.530;8.584;2022-12-31T16:09:15;11.30;99.90
61255;DHT22;47128;47.530;8.584;2022-12-31T16:11:42;11.40;99.90
61255;DHT22;47128;47.530;8.584;2022-12-31T16:14:42;11.30;99.90
61255;DHT22;47128;47.530;8.584;2022-12-31T16:17:01;11.20;99.90
61255;DHT22;47128;47.530;8.584;2022-12-31T16:22:00;11.20;99.90
61255;DHT22;47128;47.530;8.584;2022-12-31T16:26:52;11.30;99.90
61255;DHT22;47128;47.530;8.584;2022-12-31T16:29:18;11.40;99.90
61255;DHT22;47128;47.530;8.584;2022-12-31T16:31:46;11.60;99.90
61255;DHT22;47128;47.530;8.584;2022-12-31T16:34:34;11.70;99.90
61255;DHT22;47128;47.530;8.584;2022-12-31T16:37:04;11.90;99.90
61255;DHT22;47128;47.530;8.584;2022-12-31T16:39:31;12.00;99.90
61255;DHT22;47128;47.530;8.584;2022-12-31T16:44:38;12.30;99.90
61255;DHT22;47128;47.530;8.584;2022-12-31T16:47:03;12.50;99.90
61255;DHT22;47128;47.530;8.584;2022-12-31T16:49:30;12.50;99.90
61255;DHT22;47128;47.530;8.584;2022-12-31T16:51:58;12.20;99.90
61255;DHT22;47128;47.530;8.584;2022-12-31T16:54:29;12.20;99.90
61255;DHT22;47128;47.530;8.584;2022-12-31T16:56:55;12.00;99.90
61255;DHT22;47128;47.530;8.584;2022-12-31T16:59:32;12.30;99.90
61255;DHT22;47128;47.530;8.584;2022-12-31T17:02:00;12.50;99.90
61255;DHT22;47128;47.530;8.584;2022-12-31T17:04:27;12.40;99.90
61255;DHT22;47128;47.530;8.584;2022-12-31T17:06:53;12.40;99.90
61255;DHT22;47128;47.530;8.584;2022-12-31T17:09:19;12.30;99.90
61255;DHT22;47128;47.530;8.584;2022-12-31T17:14:21;12.30;99.90
61255;DHT22;47128;47.530;8.584;2022-12-31T17:17:05;12.20;99.90
61255;DHT22;47128;47.530;8.584;2022-12-31T17:19:42;12.20;99.90
61255;DHT22;47128;47.530;8.584;2022-12-31T17:27:06;11.90;99.90
61255;DHT22;47128;47.530;8.584;2022-12-31T17:29:32;11.80;99.90
61255;DHT22;47128;47.530;8.584;2022-12-31T17:31:59;11.60;99.90
61255;DHT22;47128;47.530;8.584;2022-12-31T17:34:29;11.40;99.90
61255;DHT22;47128;47.530;8.584;2022-12-31T17:37:14;11.50;99.90
61255;DHT22;47128;47.530;8.584;2022-12-31T17:39:42;11.50;99.90
61255;DHT22;47128;47.530;8.584;2022-12-31T17:42:08;11.40;99.90
61255;DHT22;47128;47.530;8.584;2022-12-31T17:44:37;11.40;99.90
61255;DHT22;47128;47.530;8.584;2022-12-31T17:47:03;11.20;99.90
61255;DHT22;47128;47.530;8.584;2022-12-31T17:49:29;11.20;99.90
61255;DHT22;47128;47.530;8.584;2022-12-31T17:51:56;11.10;99.90
61255;DHT22;47128;47.530;8.584;2022-12-31T17:54:22;11.00;99.90
61255;DHT22;47128;47.530;8.584;2022-12-31T17:56:47;11.00;99.90
61255;DHT22;47128;47.530;8.584;2022-12-31T17:59:16;10.90;99.90
61255;DHT22;47128;47.530;8.584;2022-12-31T18:01:42;10.80;99.90
61255;DHT22;47128;47.530;8.584;2022-12-31T18:04:11;10.80;99.90
61255;DHT22;47128;47.530;8.584;2022-12-31T18:06:37;10.70;99.90
61255;DHT22;47128;47.530;8.584;2022-12-31T18:09:02;10.70;99.90
61255;DHT22;47128;47.530;8.584;2022-12-31T18:11:28;10.70;99.90
61255;DHT22;47128;47.530;8.584;2022-12-31T18:13:53;10.70;99.90
61255;DHT22;47128;47.530;8.584;2022-12-31T18:16:19;10.60;99.90
61255;DHT22;47128;47.530;8.584;2022-12-31T18:18:45;10.60;99.90
61255;DHT22;47128;47.530;8.584;2022-12-31T18:21:52;10.60;99.90
61255;DHT22;47128;47.530;8.584;2022-12-31T18:23:59;10.50;99.90
61255;DHT22;47128;47.530;8.584;2022-12-31T18:26:25;10.40;99.90
61255;DHT22;47128;47.530;8.584;2022-12-31T18:28:51;10.40;99.90
61255;DHT22;47128;47.530;8.584;2022-12-31T18:33:46;10.20;99.90
61255;DHT22;47128;47.530;8.584;2022-12-31T18:36:13;10.10;99.90
61255;DHT22;47128;47.530;8.584;2022-12-31T18:38:38;10.10;99.90
61255;DHT22;47128;47.530;8.584;2022-12-31T18:41:04;10.10;99.90
61255;DHT22;47128;47.530;8.584;2022-12-31T18:43:30;10.10;99.90
61255;DHT22;47128;47.530;8.584;2022-12-31T18:45:55;10.10;99.90
61255;DHT22;47128;47.530;8.584;2022-12-31T18:48:21;10.00;99.90
61255;DHT22;47128;47.530;8.584;2022-12-31T18:50:46;9.90;99.90
61255;DHT22;47128;47.530;8.584;2022-12-31T18:53:13;9.90;99.90
61255;DHT22;47128;47.530;8.584;2022-12-31T18:55:40;9.80;99.90
61255;DHT22;47128;47.530;8.584;2022-12-31T18:58:08;9.90;99.90
61255;DHT22;47128;47.530;8.584;2022-12-31T19:00:34;10.10;99.90
61255;DHT22;47128;47.530;8.584;2022-12-31T19:02:59;10.20;99.90
61255;DHT22;47128;47.530;8.584;2022-12-31T19:05:26;10.20;99.90
61255;DHT22;47128;47.530;8.584;2022-12-31T19:07:52;10.20;99.90
61255;DHT22;47128;47.530;8.584;2022-12-31T19:10:18;10.20;99.90
61255;DHT22;47128;47.530;8.584;2022-12-31T19:12:44;10.10;99.90
61255;DHT22;47128;47.530;8.584;2022-12-31T19:15:19;10.10;99.90
61255;DHT22;47128;47.530;8.584;2022-12-31T19:17:46;10.10;99.90
61255;DHT22;47128;47.530;8.584;2022-12-31T19:20:12;10.00;99.90
61255;DHT22;47128;47.530;8.584;2022-12-31T19:22:37;10.10;99.90
61255;DHT22;47128;47.530;8.584;2022-12-31T19:25:06;10.00;99.90
61255;DHT22;47128;47.530;8.584;2022-12-31T19:27:39;9.90;99.90
61255;DHT22;47128;47.530;8.584;2022-12-31T19:30:04;9.80;99.90
61255;DHT22;47128;47.530;8.584;2022-12-31T19:32:30;9.80;99.90
61255;DHT22;47128;47.530;8.584;2022-12-31T19:34:55;9.70;99.90